Time;durP1;ratioP1;P1;durP2;ratioP2;P2;SDS_P1;SDS_P2;PMS_P1;PMS_P2;Temp;Humidity;BMP_temperature;BMP_pressure;BME280_temperature;BME280_humidity;BME280_pressure;Samples;Min_cycle;Max_cycle;Signal;HPM_P1;HPM_P2
2022/06/07 00:00:16;;;;;;;;;52.67;43.00;;;;;22.71;64.41;100681.71;110605;1258;19309;-48
2022/06/07 00:03:01;;;;;;;;;55.00;45.00;;;;;22.72;64.40;100678.31;110517;1261;20334;-47
2022/06/07 00:05:28;;;;;;;;;53.67;43.33;;;;;22.69;64.34;100666.70;110459;1260;20283;-46
2022/06/07 00:07:55;;;;;;;;;58.00;45.00;;;;;22.66;64.26;100665.71;110475;1261;19352;-48
2022/06/07 00:10:23;;;;;;;;;56.00;45.00;;;;;22.63;64.26;100659.91;110447;1261;19831;-47
2022/06/07 00:12:50;;;;;;;;;58.00;46.50;;;;;22.61;64.38;100666.91;110481;1259;20400;-47
2022/06/07 00:15:17;;;;;;;;;60.33;48.33;;;;;22.58;64.44;100660.77;110510;1260;19442;-48
2022/06/07 00:17:44;;;;;;;;;53.00;44.00;;;;;22.57;64.14;100661.44;110479;1261;23183;-48
2022/06/07 00:20:12;;;;;;;;;58.00;47.67;;;;;22.55;64.21;100656.42;110471;1260;22433;-48
2022/06/07 00:22:39;;;;;;;;;57.33;47.00;;;;;22.52;64.33;100655.54;110449;1260;19297;-48
2022/06/07 00:25:06;;;;;;;;;57.00;45.00;;;;;22.50;64.32;100653.98;110480;1259;19621;-47
2022/06/07 00:27:34;;;;;;;;;52.33;44.33;;;;;22.53;64.24;100654.11;110482;1260;20148;-48
2022/06/07 00:30:01;;;;;;;;;57.00;45.33;;;;;22.53;64.21;100649.17;110411;1261;19352;-48
2022/06/07 00:32:28;;;;;;;;;53.33;45.00;;;;;22.45;64.13;100646.36;110485;1260;19553;-49
2022/06/07 00:34:55;;;;;;;;;61.00;49.00;;;;;22.39;64.18;100638.85;110478;1260;20533;-47
2022/06/07 00:37:23;;;;;;;;;57.00;48.00;;;;;22.29;64.39;100636.33;110427;1259;20964;-48
2022/06/07 00:39:50;;;;;;;;;51.33;44.67;;;;;22.25;64.47;100624.95;110469;1260;21534;-46
2022/06/07 00:42:17;;;;;;;;;55.00;44.00;;;;;22.27;64.48;100620.54;110481;1260;20315;-48
2022/06/07 00:44:46;;;;;;;;;58.67;44.67;;;;;22.21;64.70;100615.72;110458;1259;19339;-48
2022/06/07 00:47:13;;;;;;;;;61.33;49.33;;;;;22.17;64.54;100615.38;110503;1261;19665;-47
2022/06/07 00:49:41;;;;;;;;;55.67;47.00;;;;;22.12;64.51;100610.77;110487;1260;20414;-47
2022/06/07 00:52:08;;;;;;;;;61.00;48.67;;;;;22.08;64.62;100612.84;110473;1260;19106;-46
2022/06/07 00:54:35;;;;;;;;;58.00;46.50;;;;;21.98;64.78;100602.58;110502;1260;19539;-48
2022/06/07 00:57:03;;;;;;;;;50.33;44.00;;;;;21.99;64.89;100590.90;110496;1259;20438;-47
2022/06/07 00:59:30;;;;;;;;;58.67;46.33;;;;;21.99;64.86;100583.55;110458;1259;19510;-46
2022/06/07 01:01:57;;;;;;;;;59.33;46.00;;;;;22.06;64.51;100583.11;110445;1261;23155;-47
2022/06/07 01:04:27;;;;;;;;;58.00;47.00;;;;;22.10;64.33;100587.85;110462;1259;20424;-47
2022/06/07 01:12:24;;;;;;;;;59.50;45.50;;;;;21.96;64.47;100558.73;110646;1259;20673;-47
2022/06/07 01:14:51;;;;;;;;;62.00;48.00;;;;;21.88;64.75;100553.98;110470;1261;19816;-48
2022/06/07 01:17:20;;;;;;;;;57.33;45.67;;;;;21.91;64.69;100558.21;110622;1258;19554;-48
2022/06/07 01:19:47;;;;;;;;;54.33;45.67;;;;;21.94;64.82;100562.00;110618;1258;20327;-46
2022/06/07 01:22:15;;;;;;;;;58.67;46.00;;;;;22.00;64.61;100553.96;110604;1258;19314;-48
2022/06/07 01:24:42;;;;;;;;;61.00;49.00;;;;;22.06;64.33;100550.11;110607;1258;19542;-48
2022/06/07 01:27:09;;;;;;;;;60.00;46.00;;;;;22.01;64.45;100550.55;110656;1259;20341;-48
2022/06/07 01:29:37;;;;;;;;;59.67;46.33;;;;;21.96;64.37;100547.74;110577;1258;23001;-49
2022/06/07 01:32:04;;;;;;;;;59.00;48.00;;;;;21.93;64.60;100550.30;110400;1259;19732;-46
2022/06/07 01:34:31;;;;;;;;;56.00;46.50;;;;;21.91;64.80;100547.23;110353;1260;21608;-47
2022/06/07 01:36:59;;;;;;;;;59.00;47.00;;;;;21.88;64.63;100534.25;110587;1259;19329;-47
2022/06/07 01:42:11;;;;;;;;;60.00;48.50;;;;;21.89;64.86;100536.48;110610;1259;20177;-47
2022/06/07 01:44:39;;;;;;;;;63.33;48.33;;;;;21.89;64.66;100539.90;110454;1259;24177;-49
2022/06/07 01:47:07;;;;;;;;;60.00;50.00;;;;;21.92;64.65;100539.50;110588;1258;19564;-47
2022/06/07 01:49:35;;;;;;;;;62.00;50.00;;;;;21.95;64.69;100552.10;110620;1258;22706;-46
2022/06/07 01:52:02;;;;;;;;;63.00;48.00;;;;;22.05;64.40;100546.10;110596;1258;21672;-48
2022/06/07 01:54:30;;;;;;;;;55.00;46.33;;;;;21.98;64.51;100546.21;110600;1258;23192;-47
2022/06/07 01:56:57;;;;;;;;;55.50;46.00;;;;;21.93;64.63;100545.53;110596;1259;20328;-48
2022/06/07 01:59:24;;;;;;;;;62.00;49.67;;;;;21.93;64.54;100545.09;110499;1258;20407;-47
2022/06/07 02:01:52;;;;;;;;;61.00;50.33;;;;;21.86;64.81;100547.58;110619;1258;19653;-48
2022/06/07 02:04:22;;;;;;;;;65.00;51.00;;;;;21.76;65.11;100560.23;110603;1259;20340;-48
2022/06/07 02:06:49;;;;;;;;;65.00;51.33;;;;;21.78;65.37;100565.55;110577;1258;19247;-47
2022/06/07 02:09:19;;;;;;;;;60.00;47.33;;;;;21.93;64.86;100575.99;110555;1259;19590;-46
2022/06/07 02:11:47;;;;;;;;;65.00;50.33;;;;;22.00;64.50;100575.46;110419;1258;20659;-47
2022/06/07 02:14:14;;;;;;;;;62.50;48.00;;;;;22.00;64.69;100569.46;110493;1259;23649;-49
2022/06/07 02:16:42;;;;;;;;;59.67;47.00;;;;;22.01;64.60;100574.59;110639;1259;20027;-50
2022/06/07 02:19:09;;;;;;;;;60.50;47.00;;;;;22.10;64.34;100578.36;110619;1258;20389;-49
2022/06/07 02:21:36;;;;;;;;;61.50;50.00;;;;;22.17;63.96;100581.78;110656;1258;23630;-47
2022/06/07 02:24:04;;;;;;;;;63.00;47.33;;;;;22.21;64.04;100582.59;110579;1258;19608;-47
2022/06/07 02:26:31;;;;;;;;;61.33;48.00;;;;;22.26;63.76;100580.16;110593;1258;20380;-47
2022/06/07 02:28:59;;;;;;;;;61.33;49.67;;;;;22.27;63.65;100591.81;110611;1258;19738;-47
2022/06/07 02:31:26;;;;;;;;;63.00;50.00;;;;;22.28;63.67;100603.10;110539;1258;19664;-48
2022/06/07 02:33:53;;;;;;;;;63.00;50.33;;;;;22.33;63.53;100602.48;110559;1258;20333;-48
2022/06/07 02:36:20;;;;;;;;;62.00;49.00;;;;;22.34;63.44;100614.21;110419;1261;22868;-47
2022/06/07 02:38:48;;;;;;;;;59.00;46.00;;;;;22.33;63.51;100614.66;110617;1258;23330;-48
2022/06/07 02:41:15;;;;;;;;;60.00;48.00;;;;;22.34;63.60;100613.67;110631;1258;20412;-49
2022/06/07 02:43:42;;;;;;;;;57.67;46.00;;;;;22.35;63.51;100613.67;110613;1258;23454;-46
2022/06/07 02:46:09;;;;;;;;;63.67;48.00;;;;;22.35;63.51;100613.41;110484;1260;19702;-48
2022/06/07 02:48:37;;;;;;;;;59.00;47.00;;;;;22.36;63.29;100620.70;110474;1261;20281;-48
2022/06/07 02:51:04;;;;;;;;;59.00;46.67;;;;;22.35;63.30;100624.06;110616;1259;19795;-47
2022/06/07 02:53:31;;;;;;;;;58.67;49.00;;;;;22.37;63.34;100624.17;110604;1259;19871;-47
2022/06/07 02:55:58;;;;;;;;;59.00;46.67;;;;;22.38;63.22;100620.57;110620;1259;20165;-48
2022/06/07 02:58:26;;;;;;;;;62.00;47.00;;;;;22.44;63.08;100621.73;110468;1260;23857;-46
2022/06/07 03:00:53;;;;;;;;;60.33;50.67;;;;;22.45;62.93;100624.73;110509;1258;27454;-48
2022/06/07 03:03:20;;;;;;;;;53.50;43.00;;;;;22.43;62.97;100629.16;110475;1260;23626;-48
2022/06/07 03:05:48;;;;;;;;;59.00;47.00;;;;;22.45;62.80;100633.84;110588;1258;19788;-47
2022/06/07 03:08:18;;;;;;;;;60.33;50.00;;;;;22.46;62.82;100638.77;110632;1258;19618;-47
2022/06/07 03:10:46;;;;;;;;;59.00;46.00;;;;;22.45;62.76;100642.41;110695;1258;20316;-48
2022/06/07 03:13:13;;;;;;;;;60.00;49.50;;;;;22.45;62.70;100638.68;110608;1259;19814;-47
2022/06/07 03:15:41;;;;;;;;;64.67;47.67;;;;;22.37;63.03;100638.07;110612;1259;19600;-47
2022/06/07 03:18:08;;;;;;;;;59.67;47.33;;;;;22.35;62.98;100639.18;110459;1260;22933;-48
2022/06/07 03:20:35;;;;;;;;;60.67;50.00;;;;;22.33;63.13;100634.61;110616;1259;23374;-48
2022/06/07 03:23:03;;;;;;;;;61.00;49.50;;;;;22.30;63.08;100637.85;110618;1258;19585;-51
2022/06/07 03:25:30;;;;;;;;;61.33;48.00;;;;;22.30;63.11;100641.13;110576;1258;20338;-51
2022/06/07 03:27:57;;;;;;;;;59.00;47.00;;;;;22.31;63.13;100640.27;110445;1260;23741;-47
2022/06/07 03:30:24;;;;;;;;;54.33;44.33;;;;;22.36;62.82;100638.70;110446;1259;19741;-47
2022/06/07 03:32:52;;;;;;;;;63.00;48.33;;;;;22.43;62.71;100639.57;110471;1260;20364;-48
2022/06/07 03:35:19;;;;;;;;;56.00;46.67;;;;;22.41;62.59;100635.86;110639;1258;23013;-47
2022/06/07 03:37:46;;;;;;;;;59.00;47.00;;;;;22.38;62.63;100640.98;110625;1258;19629;-46
2022/06/07 03:40:14;;;;;;;;;63.00;50.67;;;;;22.32;62.67;100632.16;110481;1260;23662;-48
2022/06/07 03:42:41;;;;;;;;;62.00;50.00;;;;;22.31;62.93;100631.22;110606;1258;19205;-49
2022/06/07 03:45:08;;;;;;;;;60.00;47.67;;;;;22.25;62.94;100624.59;110452;1259;23057;-48
2022/06/07 03:47:37;;;;;;;;;62.00;49.00;;;;;22.25;62.99;100626.23;110609;1259;20242;-47
2022/06/07 03:50:04;;;;;;;;;60.00;47.00;;;;;22.25;62.98;100622.46;110643;1258;23675;-47
2022/06/07 03:52:32;;;;;;;;;62.50;48.50;;;;;22.25;62.93;100624.98;110409;1260;23790;-47
2022/06/07 03:54:59;;;;;;;;;57.50;44.50;;;;;22.23;63.08;100635.81;110591;1259;20375;-48
2022/06/07 03:57:26;;;;;;;;;56.00;46.00;;;;;22.25;63.12;100635.15;110551;1259;23207;-48
2022/06/07 03:59:54;;;;;;;;;53.33;43.67;;;;;22.28;63.03;100633.77;110473;1260;19630;-48
2022/06/07 04:02:21;;;;;;;;;57.00;45.00;;;;;22.28;63.15;100629.71;110612;1258;20554;-49
2022/06/07 04:04:48;;;;;;;;;59.50;46.00;;;;;22.28;63.09;100624.98;110657;1258;23122;-48
2022/06/07 04:10:00;;;;;;;;;61.33;47.00;;;;;22.29;63.04;100630.27;110464;1259;20222;-47
2022/06/07 04:12:27;;;;;;;;;59.00;47.00;;;;;22.31;63.17;100633.38;110430;1260;19242;-47
2022/06/07 04:14:55;;;;;;;;;61.67;50.33;;;;;22.32;63.09;100630.28;110320;1259;21096;-47
2022/06/07 04:17:22;;;;;;;;;58.33;46.67;;;;;22.29;63.43;100633.08;110444;1260;20641;-47
2022/06/07 04:19:49;;;;;;;;;54.33;45.67;;;;;22.31;63.18;100627.13;110480;1260;19364;-48
2022/06/07 04:22:17;;;;;;;;;62.00;48.00;;;;;22.35;63.21;100627.14;110433;1260;23662;-48
2022/06/07 04:24:44;;;;;;;;;65.00;49.67;;;;;22.37;63.07;100629.67;110400;1258;20248;-47
2022/06/07 04:27:11;;;;;;;;;60.33;46.67;;;;;22.38;63.09;100626.77;110360;1261;23913;-47
2022/06/07 04:29:38;;;;;;;;;58.00;47.33;;;;;22.39;63.03;100621.71;110379;1259;20105;-48
2022/06/07 04:32:06;;;;;;;;;58.00;46.67;;;;;22.41;62.95;100621.73;110432;1261;20351;-48
2022/06/07 04:34:33;;;;;;;;;56.67;45.00;;;;;22.44;62.89;100623.03;110377;1259;23447;-41
2022/06/07 04:37:01;;;;;;;;;55.50;45.50;;;;;22.45;62.97;100626.36;110396;1260;19741;-43
2022/06/07 04:39:28;;;;;;;;;48.00;43.00;;;;;22.46;62.86;100630.91;110543;1259;20399;-44
2022/06/07 04:41:55;;;;;;;;;56.67;43.67;;;;;22.47;62.89;100632.64;110437;1260;23258;-48
2022/06/07 04:44:23;;;;;;;;;48.00;42.00;;;;;22.57;62.76;100631.77;110452;1260;19755;-47
2022/06/07 04:46:50;;;;;;;;;45.67;41.67;;;;;22.66;62.31;100632.97;110485;1260;20319;-48
2022/06/07 04:49:17;;;;;;;;;51.00;43.00;;;;;22.77;62.49;100634.95;110405;1259;19244;-47
2022/06/07 04:51:46;;;;;;;;;51.67;42.67;;;;;22.75;63.18;100638.63;110458;1261;19683;-50
2022/06/07 04:54:13;;;;;;;;;59.00;43.00;;;;;22.64;63.85;100636.98;110465;1259;24364;-48
2022/06/07 04:56:41;;;;;;;;;52.00;44.50;;;;;22.65;63.57;100631.27;110424;1260;19355;-50
2022/06/07 04:59:08;;;;;;;;;65.67;49.00;;;;;22.67;63.09;100634.36;110559;1259;19594;-49
2022/06/07 05:01:35;;;;;;;;;56.67;45.00;;;;;22.66;62.90;100630.58;110465;1257;20334;-49
2022/06/07 05:04:03;;;;;;;;;59.50;47.00;;;;;22.64;62.71;100635.80;110425;1260;19386;-50
2022/06/07 05:06:30;;;;;;;;;53.67;45.33;;;;;22.63;62.74;100637.34;110508;1258;19618;-49
2022/06/07 05:08:58;;;;;;;;;75.00;59.00;;;;;22.68;62.63;100637.11;110372;1260;23621;-50
2022/06/07 05:11:26;;;;;;;;;73.67;59.67;;;;;22.73;62.73;100635.91;110461;1260;19639;-51
2022/06/07 05:13:53;;;;;;;;;65.50;53.00;;;;;22.76;62.65;100640.10;110449;1260;24406;-50
2022/06/07 05:16:21;;;;;;;;;67.67;55.00;;;;;22.79;62.46;100637.04;110443;1259;23824;-49
2022/06/07 05:18:48;;;;;;;;;71.33;54.33;;;;;22.82;62.53;100640.85;110467;1260;19277;-51
2022/06/07 05:21:15;;;;;;;;;64.00;51.00;;;;;22.75;62.47;100642.11;110451;1261;22888;-50
2022/06/07 05:23:43;;;;;;;;;60.67;48.67;;;;;22.74;62.54;100645.88;110451;1259;20229;-49
2022/06/07 05:26:11;;;;;;;;;62.00;49.00;;;;;22.77;62.27;100645.45;110452;1260;23231;-50
2022/06/07 05:28:38;;;;;;;;;56.33;44.67;;;;;22.82;62.07;100651.27;110424;1259;20924;-49
2022/06/07 05:31:05;;;;;;;;;54.00;45.00;;;;;22.86;61.93;100657.40;110443;1261;22524;-50
2022/06/07 05:33:33;;;;;;;;;53.50;45.00;;;;;22.83;62.27;100656.47;110284;1260;19397;-52
2022/06/07 05:36:00;;;;;;;;;52.67;43.67;;;;;22.77;62.89;100665.16;110351;1261;22980;-49
2022/06/07 05:38:27;;;;;;;;;50.00;44.00;;;;;22.75;62.76;100666.33;110449;1259;20338;-49
2022/06/07 05:40:55;;;;;;;;;50.33;41.00;;;;;22.71;62.82;100668.50;110484;1259;19449;-50
2022/06/07 05:43:22;;;;;;;;;45.00;40.50;;;;;22.58;62.86;100671.80;110216;1260;224145;-51
2022/06/07 05:45:49;;;;;;;;;51.67;42.33;;;;;22.52;63.04;100678.61;110362;1259;20315;-50
2022/06/07 05:48:16;;;;;;;;;50.33;42.00;;;;;22.55;62.88;100677.33;110428;1260;23120;-49
2022/06/07 05:50:44;;;;;;;;;48.67;40.33;;;;;22.59;62.84;100671.41;110431;1259;19882;-49
2022/06/07 05:53:12;;;;;;;;;44.33;39.00;;;;;22.55;63.11;100672.09;110436;1260;21618;-49
2022/06/07 05:55:40;;;;;;;;;41.00;39.00;;;;;22.49;63.03;100676.26;110424;1260;19404;-49
2022/06/07 05:58:07;;;;;;;;;38.67;37.00;;;;;22.50;62.97;100671.64;110439;1260;19824;-50
2022/06/07 06:00:35;;;;;;;;;38.67;34.67;;;;;22.53;62.93;100675.94;110466;1260;19952;-49
2022/06/07 06:03:02;;;;;;;;;38.00;35.50;;;;;22.58;62.83;100677.46;110437;1259;19685;-50
2022/06/07 06:05:30;;;;;;;;;36.67;35.00;;;;;22.56;62.80;100680.33;110491;1259;19856;-49
2022/06/07 06:10:42;;;;;;;;;35.00;32.00;;;;;22.65;63.13;100671.23;110445;1261;23064;-50
2022/06/07 06:13:09;;;;;;;;;36.00;31.33;;;;;22.74;62.96;100672.41;110300;1260;19625;-50
2022/06/07 06:15:36;;;;;;;;;37.00;35.50;;;;;22.70;63.20;100674.00;110250;1260;23723;-48
2022/06/07 06:18:04;;;;;;;;;39.33;34.00;;;;;22.64;63.96;100673.17;110190;1260;19328;-51
2022/06/07 06:20:31;;;;;;;;;35.00;33.67;;;;;22.63;63.55;100667.50;110208;1259;19837;-49
2022/06/07 06:22:58;;;;;;;;;32.67;29.67;;;;;22.56;63.53;100670.30;110481;1259;20289;-49
2022/06/07 06:25:26;;;;;;;;;31.33;30.33;;;;;22.48;63.66;100676.08;110541;1258;22480;-52
2022/06/07 06:27:53;;;;;;;;;34.00;28.50;;;;;22.48;63.48;100677.25;110450;1260;19550;-50
2022/06/07 06:30:21;;;;;;;;;34.67;30.67;;;;;22.48;63.22;100673.77;110419;1258;20303;-49
2022/06/07 06:32:48;;;;;;;;;31.67;30.33;;;;;22.46;63.45;100675.41;110403;1259;19283;-49
2022/06/07 06:35:15;;;;;;;;;29.33;27.67;;;;;22.57;63.26;100668.91;110418;1259;23083;-50
2022/06/07 06:37:43;;;;;;;;;30.00;27.00;;;;;22.77;62.85;100670.80;110329;1260;23571;-50
2022/06/07 06:40:12;;;;;;;;;34.00;30.00;;;;;22.83;62.64;100664.54;110335;1260;19229;-47
2022/06/07 06:42:39;;;;;;;;;30.33;27.67;;;;;22.78;62.75;100663.84;110373;1260;19924;-49
2022/06/07 06:45:06;;;;;;;;;29.00;26.00;;;;;22.72;62.82;100664.55;110321;1259;21779;-49
2022/06/07 06:47:33;;;;;;;;;33.00;29.50;;;;;22.69;62.75;100662.38;110509;1259;23625;-50
2022/06/07 06:50:01;;;;;;;;;24.67;24.00;;;;;22.68;62.76;100663.47;110485;1260;19614;-49
2022/06/07 06:52:28;;;;;;;;;27.00;26.67;;;;;22.76;62.58;100660.50;110444;1259;21556;-49
2022/06/07 06:54:55;;;;;;;;;24.00;22.67;;;;;22.80;62.63;100655.45;110422;1259;19317;-50
2022/06/07 06:57:23;;;;;;;;;72.00;54.33;;;;;22.80;62.64;100657.98;110343;1259;19653;-49
2022/06/07 06:59:50;;;;;;;;;298.75;211.00;;;;;22.77;62.62;100659.80;110401;1259;20679;-49
2022/06/07 07:02:19;;;;;;;;;191.00;144.00;;;;;22.79;62.67;100662.13;110433;1259;25325;-50
2022/06/07 07:04:46;;;;;;;;;267.00;198.00;;;;;22.79;62.47;100668.23;110392;1259;23512;-50
2022/06/07 07:07:13;;;;;;;;;223.75;163.00;;;;;22.79;62.70;100671.13;110347;1261;22638;-49
2022/06/07 07:09:41;;;;;;;;;167.50;124.75;;;;;22.81;62.59;100672.46;110290;1261;22982;-50
2022/06/07 07:12:08;;;;;;;;;182.75;138.75;;;;;22.80;62.63;100676.09;110379;1261;19843;-51
2022/06/07 07:14:35;;;;;;;;;145.50;111.25;;;;;22.80;62.69;100673.91;110344;1261;20620;-50
2022/06/07 07:17:02;;;;;;;;;136.50;105.50;;;;;22.77;62.65;100678.24;110328;1261;19053;-53
2022/06/07 07:19:30;;;;;;;;;120.00;92.00;;;;;22.76;63.02;100681.71;110310;1261;19808;-51
2022/06/07 07:21:57;;;;;;;;;96.67;71.00;;;;;22.76;63.35;100675.29;110310;1261;20298;-51
2022/06/07 07:24:24;;;;;;;;;91.00;66.00;;;;;22.78;63.27;100674.68;110374;1260;23450;-46
2022/06/07 07:26:52;;;;;;;;;91.00;67.67;;;;;22.87;63.07;100673.77;110195;1260;19894;-46
2022/06/07 07:29:19;;;;;;;;;74.00;53.67;;;;;22.93;62.79;100672.00;110257;1260;20439;-47
2022/06/07 07:31:46;;;;;;;;;55.00;43.00;;;;;22.95;62.11;100678.19;110442;1260;23770;-47
2022/06/07 07:34:14;;;;;;;;;43.00;37.00;;;;;22.92;61.91;100682.23;110362;1261;19718;-46
2022/06/07 07:36:42;;;;;;;;;39.00;35.00;;;;;22.88;61.83;100680.81;110438;1260;21884;-48
2022/06/07 07:39:09;;;;;;;;;38.67;35.00;;;;;22.85;61.83;100681.73;110482;1261;20221;-48
2022/06/07 07:41:37;;;;;;;;;39.00;33.33;;;;;22.81;61.64;100684.80;110449;1261;21151;-47
2022/06/07 07:44:04;;;;;;;;;40.00;34.33;;;;;22.80;61.75;100680.41;110461;1259;20472;-48
2022/06/07 07:46:31;;;;;;;;;38.33;33.00;;;;;22.76;62.11;100682.80;110390;1261;23165;-49
2022/06/07 07:48:58;;;;;;;;;35.00;31.33;;;;;22.78;62.02;100681.96;110415;1260;19552;-48
2022/06/07 07:51:26;;;;;;;;;34.67;30.67;;;;;22.77;61.71;100687.50;110296;1260;20396;-52
2022/06/07 07:53:53;;;;;;;;;28.50;24.00;;;;;22.75;61.61;100692.14;110400;1261;19344;-49
2022/06/07 07:56:20;;;;;;;;;30.00;24.50;;;;;22.76;61.67;100691.50;110427;1260;23181;-48
2022/06/07 07:58:48;;;;;;;;;31.00;27.00;;;;;22.75;61.55;100695.55;110353;1262;22678;-49
2022/06/07 08:01:15;;;;;;;;;33.00;31.00;;;;;22.76;61.56;100691.80;110390;1260;19252;-52
2022/06/07 08:03:42;;;;;;;;;26.67;26.00;;;;;22.75;61.67;100696.92;110411;1260;23044;-49
2022/06/07 08:06:10;;;;;;;;;30.50;27.00;;;;;22.74;61.77;100705.95;110370;1260;20339;-47
2022/06/07 08:08:37;;;;;;;;;30.33;27.00;;;;;22.78;61.67;100704.56;110277;1260;20098;-47
2022/06/07 08:11:04;;;;;;;;;35.50;33.50;;;;;22.86;61.39;100712.60;110331;1260;23839;-49
2022/06/07 08:13:31;;;;;;;;;30.67;29.67;;;;;22.89;61.47;100708.07;110199;1260;20615;-49
2022/06/07 08:15:59;;;;;;;;;37.00;32.00;;;;;22.92;61.56;100711.52;110238;1260;19119;-48
2022/06/07 08:18:26;;;;;;;;;32.67;26.67;;;;;22.87;62.01;100715.77;110385;1261;23206;-47
2022/06/07 08:20:53;;;;;;;;;32.33;30.00;;;;;22.90;62.05;100715.44;110369;1260;25017;-49
2022/06/07 08:23:21;;;;;;;;;33.50;30.50;;;;;22.88;61.93;100714.98;110434;1260;19540;-46
2022/06/07 08:25:48;;;;;;;;;36.00;33.00;;;;;22.85;61.86;100717.88;110334;1261;21518;-50
2022/06/07 08:28:15;;;;;;;;;34.33;31.67;;;;;22.82;61.86;100717.45;110408;1261;20432;-49
2022/06/07 08:30:43;;;;;;;;;30.00;27.00;;;;;22.84;61.96;100716.34;110422;1261;21050;-49
2022/06/07 08:38:41;;;;;;;;;29.33;24.33;;;;;22.95;61.77;100714.65;110417;1260;20421;-49
2022/06/07 08:41:08;;;;;;;;;31.00;26.67;;;;;22.98;61.41;100714.82;110463;1260;19614;-48
2022/06/07 08:43:36;;;;;;;;;31.33;29.00;;;;;22.99;61.27;100716.55;110297;1261;20425;-51
2022/06/07 08:46:03;;;;;;;;;28.50;26.00;;;;;23.03;61.01;100726.19;110405;1261;19676;-50
2022/06/07 08:48:32;;;;;;;;;28.67;27.67;;;;;23.04;61.57;100724.05;110400;1261;19645;-50
2022/06/07 08:50:59;;;;;;;;;30.67;28.00;;;;;23.09;61.55;100725.63;110219;1261;20476;-47
2022/06/07 08:53:27;;;;;;;;;28.00;26.67;;;;;23.06;61.34;100728.73;110371;1260;19402;-52
2022/06/07 08:55:54;;;;;;;;;32.50;27.50;;;;;23.10;61.30;100721.98;110418;1261;19863;-52
2022/06/07 08:58:22;;;;;;;;;30.33;25.67;;;;;23.13;61.12;100716.92;110391;1261;22831;-49
2022/06/07 09:00:49;;;;;;;;;31.00;28.33;;;;;23.13;61.19;100718.15;110394;1261;19310;-49
2022/06/07 09:03:16;;;;;;;;;31.00;28.33;;;;;23.14;61.18;100717.33;110400;1260;23058;-50
2022/06/07 09:05:44;;;;;;;;;31.00;28.67;;;;;23.15;61.31;100711.02;110430;1260;20250;-48
2022/06/07 09:08:11;;;;;;;;;29.33;28.00;;;;;23.18;61.25;100710.80;110480;1260;19316;-47
2022/06/07 09:13:23;;;;;;;;;80.00;61.00;;;;;23.31;61.39;100709.88;110307;1262;22999;-48
2022/06/07 09:15:50;;;;;;;;;111.50;98.50;;;;;23.26;61.92;100710.34;110386;1260;21600;-49
2022/06/07 09:18:18;;;;;;;;;154.33;133.00;;;;;23.19;61.93;100709.59;110362;1261;19639;-49
2022/06/07 09:20:45;;;;;;;;;155.75;128.50;;;;;23.29;62.57;100708.10;110421;1260;20557;-47
2022/06/07 09:23:13;;;;;;;;;114.75;102.75;;;;;23.42;63.08;100708.82;110383;1261;19262;-47
2022/06/07 09:25:40;;;;;;;;;101.33;85.00;;;;;23.50;63.18;100701.83;110370;1260;20166;-48
2022/06/07 09:28:07;;;;;;;;;89.67;67.67;;;;;23.55;62.95;100698.77;110425;1260;20812;-48
2022/06/07 09:30:35;;;;;;;;;79.33;61.67;;;;;23.62;63.15;100697.48;110226;1260;19130;-48
2022/06/07 09:33:02;;;;;;;;;71.67;58.33;;;;;23.69;63.60;100693.39;110368;1261;23439;-45
2022/06/07 09:35:29;;;;;;;;;68.00;52.00;;;;;23.68;63.29;100689.64;110385;1261;22643;-50
2022/06/07 09:37:57;;;;;;;;;55.00;45.00;;;;;23.66;63.16;100684.58;110394;1260;23346;-49
2022/06/07 09:40:24;;;;;;;;;58.00;46.00;;;;;23.67;62.60;100686.86;110320;1260;19827;-49
2022/06/07 09:42:51;;;;;;;;;55.00;45.33;;;;;23.63;62.40;100684.05;110370;1260;20343;-48
2022/06/07 09:45:19;;;;;;;;;47.00;40.50;;;;;23.59;61.93;100679.69;110344;1260;23510;-48
2022/06/07 09:47:46;;;;;;;;;41.00;38.00;;;;;23.62;61.98;100679.33;110419;1261;19653;-50
2022/06/07 09:50:13;;;;;;;;;44.50;37.00;;;;;23.57;61.58;100676.68;110447;1260;23709;-49
2022/06/07 09:52:41;;;;;;;;;39.33;33.00;;;;;23.54;61.81;100671.94;110372;1260;23520;-49
2022/06/07 09:55:08;;;;;;;;;41.33;37.00;;;;;23.60;61.74;100666.86;110376;1261;19623;-49
2022/06/07 09:57:35;;;;;;;;;36.33;33.67;;;;;23.69;61.36;100661.74;110411;1260;23583;-47
2022/06/07 10:00:04;;;;;;;;;34.00;32.33;;;;;23.76;61.26;100660.61;110407;1261;19330;-48
2022/06/07 10:02:31;;;;;;;;;36.67;31.67;;;;;23.83;60.88;100652.38;110413;1261;26894;-48
2022/06/07 10:04:59;;;;;;;;;34.33;31.00;;;;;23.81;60.51;100647.15;110387;1261;20581;-48
2022/06/07 10:07:26;;;;;;;;;31.00;29.00;;;;;23.76;60.46;100648.33;110353;1260;24039;-47
2022/06/07 10:09:53;;;;;;;;;33.00;31.33;;;;;23.77;60.51;100644.37;110234;1259;19723;-48
2022/06/07 10:12:20;;;;;;;;;29.67;28.33;;;;;23.78;60.45;100641.30;110303;1261;20402;-50
2022/06/07 10:14:48;;;;;;;;;33.33;29.00;;;;;23.77;60.34;100639.44;110468;1261;19333;-48
2022/06/07 10:17:15;;;;;;;;;29.00;27.00;;;;;23.74;60.40;100635.09;110567;1259;19577;-48
2022/06/07 10:19:43;;;;;;;;;38.33;33.67;;;;;23.70;60.52;100634.30;110409;1260;20164;-53
2022/06/07 10:22:10;;;;;;;;;37.33;33.67;;;;;23.70;60.56;100634.81;110421;1260;23134;-52
2022/06/07 10:24:37;;;;;;;;;36.00;32.50;;;;;23.69;60.58;100630.25;110450;1261;20972;-50
2022/06/07 10:27:05;;;;;;;;;33.67;29.00;;;;;23.67;60.26;100629.02;110438;1261;20474;-46
2022/06/07 10:29:33;;;;;;;;;33.33;30.00;;;;;23.66;60.07;100633.30;110406;1259;19376;-46
2022/06/07 10:32:00;;;;;;;;;29.67;29.67;;;;;23.66;59.84;100633.56;110476;1259;22745;-48
2022/06/07 10:34:27;;;;;;;;;28.33;27.00;;;;;23.66;59.36;100637.25;110454;1260;20329;-48
2022/06/07 10:36:54;;;;;;;;;32.00;28.67;;;;;23.66;59.33;100636.48;110452;1259;23389;-48
2022/06/07 10:39:22;;;;;;;;;29.00;28.67;;;;;23.65;59.32;100632.70;110466;1259;19675;-46
2022/06/07 10:41:49;;;;;;;;;30.00;28.50;;;;;23.67;59.29;100629.98;110466;1260;26374;-45
2022/06/07 10:44:16;;;;;;;;;27.33;25.00;;;;;23.69;59.03;100625.84;110497;1259;22830;-47
2022/06/07 10:46:44;;;;;;;;;29.33;29.33;;;;;23.70;58.78;100624.11;110453;1260;23318;-47
2022/06/07 10:49:11;;;;;;;;;29.00;28.33;;;;;23.68;58.97;100617.66;110376;1260;20532;-47
2022/06/07 10:54:23;;;;;;;;;27.67;25.00;;;;;23.66;58.34;100611.13;110421;1261;20148;-50
2022/06/07 10:56:51;;;;;;;;;24.00;23.50;;;;;23.69;58.01;100614.97;110426;1261;22677;-49
2022/06/07 10:59:18;;;;;;;;;25.00;23.00;;;;;23.71;57.65;100616.36;110492;1261;19308;-45
2022/06/07 11:01:45;;;;;;;;;26.67;25.00;;;;;23.74;57.60;100607.92;110497;1260;19699;-47
2022/06/07 11:09:19;;;;;;;;;28.00;23.67;;;;;23.76;57.37;100605.63;110446;1260;20322;-47
2022/06/07 11:09:56;;;;;;;;;21.33;19.00;;;;;23.77;56.89;100597.09;110221;1264;21428;-49
2022/06/07 11:12:24;;;;;;;;;25.67;20.67;;;;;23.76;57.09;100598.77;110238;1263;24073;-48
2022/06/07 11:14:51;;;;;;;;;24.50;20.50;;;;;23.72;56.98;100595.88;110247;1263;19602;-48
2022/06/07 11:17:18;;;;;;;;;23.00;20.33;;;;;23.73;56.61;100593.86;110235;1263;23707;-49
2022/06/07 11:19:46;;;;;;;;;26.50;23.50;;;;;23.77;56.32;100589.80;110211;1263;20360;-49
2022/06/07 11:22:14;;;;;;;;;20.33;19.67;;;;;23.75;56.27;100591.94;110190;1263;21039;-49
2022/06/07 11:24:41;;;;;;;;;22.67;20.00;;;;;23.74;56.04;100589.33;110250;1263;20236;-49
2022/06/07 11:27:09;;;;;;;;;19.50;19.50;;;;;23.77;56.04;100585.89;110236;1263;20491;-48
2022/06/07 11:29:36;;;;;;;;;21.67;18.00;;;;;23.73;56.02;100583.63;110228;1264;19795;-48